Time;durP1;ratioP1;P1;durP2;ratioP2;P2;SDS_P1;SDS_P2;PMS_P1;PMS_P2;Temp;Humidity;BMP_temperature;BMP_pressure;BME280_temperature;BME280_humidity;BME280_pressure;Samples;Min_cycle;Max_cycle;Signal;HPM_P1;HPM_P2
2023/12/21 00:02:16;;;;;;;1.73;0.65;;;4.80;99.90;;;;;;5089503;28;20047;-73
2023/12/21 00:04:42;;;;;;;3.70;0.95;;;4.90;99.90;;;;;;5088936;28;20842;-73
2023/12/21 00:07:08;;;;;;;2.05;0.60;;;4.90;99.90;;;;;;5077846;28;20090;-73
2023/12/21 00:09:33;;;;;;;3.20;0.52;;;4.90;99.90;;;;;;5088749;28;20058;-74
2023/12/21 00:11:59;;;;;;;4.65;1.00;;;5.00;99.90;;;;;;5089738;28;20032;-73
2023/12/21 00:14:30;;;;;;;0.82;0.40;;;5.00;99.90;;;;;;5070622;28;20447;-74
2023/12/21 00:16:56;;;;;;;2.05;0.60;;;4.90;99.90;;;;;;5071749;28;20762;-73
2023/12/21 00:19:22;;;;;;;2.78;0.80;;;5.00;99.90;;;;;;5089058;28;20471;-73
2023/12/21 00:21:48;;;;;;;3.97;0.70;;;5.00;99.90;;;;;;5088230;28;20126;-73
2023/12/21 00:24:14;;;;;;;2.08;0.52;;;5.00;99.90;;;;;;5070463;28;20044;-74
2023/12/21 00:26:39;;;;;;;1.50;0.63;;;5.00;99.90;;;;;;5088454;28;20059;-73
2023/12/21 00:29:06;;;;;;;3.15;0.50;;;5.00;99.90;;;;;;5088880;28;20055;-73
2023/12/21 00:31:31;;;;;;;2.50;0.75;;;5.00;99.90;;;;;;5088254;28;20046;-73
2023/12/21 00:33:57;;;;;;;1.10;0.55;;;5.00;99.90;;;;;;5070473;28;20028;-73
2023/12/21 00:36:22;;;;;;;2.67;0.80;;;5.00;99.90;;;;;;5088458;28;20385;-73
2023/12/21 00:38:48;;;;;;;6.30;0.70;;;4.90;99.90;;;;;;5087163;28;20024;-73
2023/12/21 00:41:13;;;;;;;1.25;0.57;;;4.80;99.90;;;;;;5087721;28;20103;-73
2023/12/21 00:43:39;;;;;;;0.98;0.40;;;4.80;99.90;;;;;;5088011;28;20036;-73
2023/12/21 00:46:05;;;;;;;2.47;0.47;;;4.80;99.90;;;;;;5089136;28;20055;-74
2023/12/21 00:48:30;;;;;;;1.75;0.57;;;4.70;99.90;;;;;;5088038;28;20020;-74
2023/12/21 00:50:56;;;;;;;3.60;0.60;;;4.70;99.90;;;;;;5070060;28;20036;-74
2023/12/21 00:53:21;;;;;;;2.38;0.60;;;4.60;99.90;;;;;;5073173;28;20445;-73
2023/12/21 00:55:47;;;;;;;4.43;0.52;;;4.60;99.90;;;;;;5086510;28;20036;-73
2023/12/21 00:58:13;;;;;;;1.73;0.47;;;4.60;99.90;;;;;;5070026;28;20078;-73
2023/12/21 01:00:38;;;;;;;1.42;0.50;;;4.60;99.90;;;;;;5086691;28;20145;-73
2023/12/21 01:03:04;;;;;;;2.70;0.77;;;4.60;99.90;;;;;;5088676;28;20116;-73
2023/12/21 01:05:30;;;;;;;1.60;0.45;;;4.60;99.90;;;;;;5077401;28;20094;-73
2023/12/21 01:07:55;;;;;;;1.30;0.70;;;4.50;99.90;;;;;;5085340;28;20032;-73
2023/12/21 01:10:21;;;;;;;2.30;0.65;;;4.40;99.90;;;;;;5087094;28;20143;-73
2023/12/21 01:12:46;;;;;;;1.10;0.40;;;4.40;99.90;;;;;;5085924;28;20028;-73
2023/12/21 01:15:12;;;;;;;1.52;0.30;;;4.40;99.90;;;;;;5088430;28;20484;-74
2023/12/21 01:17:38;;;;;;;1.95;0.47;;;4.40;99.90;;;;;;5087283;28;20509;-73
2023/12/21 01:20:04;;;;;;;5.43;0.80;;;4.50;99.90;;;;;;5070223;28;20336;-73
2023/12/21 01:22:30;;;;;;;1.65;0.40;;;4.40;99.90;;;;;;5087434;28;20417;-73
2023/12/21 01:24:57;;;;;;;1.30;0.50;;;4.40;99.90;;;;;;5087914;28;20474;-73
2023/12/21 01:27:22;;;;;;;2.75;0.63;;;4.30;99.90;;;;;;5087251;28;20052;-73
2023/12/21 01:29:48;;;;;;;3.75;0.60;;;4.30;99.90;;;;;;5069456;28;20063;-73
2023/12/21 01:32:14;;;;;;;2.70;0.70;;;4.30;99.90;;;;;;5087172;28;20063;-73
2023/12/21 01:34:39;;;;;;;2.50;0.77;;;4.30;99.90;;;;;;5082959;28;20147;-73
2023/12/21 01:37:05;;;;;;;1.15;0.57;;;4.20;99.90;;;;;;5076270;28;20678;-73
2023/12/21 01:39:30;;;;;;;2.80;0.70;;;4.20;99.90;;;;;;5087879;28;20020;-73
2023/12/21 01:41:56;;;;;;;2.58;0.90;;;4.20;99.90;;;;;;5087226;28;20039;-72
2023/12/21 01:44:21;;;;;;;2.42;0.70;;;4.20;99.90;;;;;;5088175;28;20028;-72
2023/12/21 01:46:47;;;;;;;2.50;0.55;;;4.20;99.90;;;;;;5087579;28;20090;-73
2023/12/21 01:49:14;;;;;;;2.15;1.25;;;4.20;99.90;;;;;;5087352;28;20024;-74
2023/12/21 01:51:41;;;;;;;2.40;0.65;;;4.20;99.90;;;;;;5086552;28;20066;-73
2023/12/21 01:54:07;;;;;;;3.90;0.55;;;4.20;99.90;;;;;;5088442;28;20116;-73
2023/12/21 01:56:33;;;;;;;4.50;0.63;;;4.20;99.90;;;;;;5087246;28;20493;-73
2023/12/21 01:59:00;;;;;;;6.75;0.70;;;4.20;99.90;;;;;;5087128;28;20028;-72
2023/12/21 02:01:26;;;;;;;2.03;0.50;;;4.20;99.90;;;;;;5087331;28;20036;-72
2023/12/21 02:03:53;;;;;;;1.60;0.55;;;4.20;99.90;;;;;;5063082;28;20043;-72
2023/12/21 02:06:19;;;;;;;2.33;0.60;;;4.20;99.90;;;;;;5086801;28;20039;-72
2023/12/21 02:08:45;;;;;;;2.45;0.50;;;4.20;99.90;;;;;;5090969;28;20035;-72
2023/12/21 02:11:10;;;;;;;1.65;0.75;;;4.10;99.90;;;;;;5091815;28;20740;-72
2023/12/21 02:13:36;;;;;;;1.55;0.60;;;4.10;99.90;;;;;;5090667;28;20039;-73
2023/12/21 02:16:10;;;;;;;0.95;0.43;;;4.10;99.90;;;;;;5091795;28;20032;-73
2023/12/21 02:18:36;;;;;;;1.23;0.40;;;4.10;99.90;;;;;;5090461;28;20079;-72
2023/12/21 02:21:03;;;;;;;2.63;0.60;;;4.10;99.90;;;;;;5090979;28;20077;-73
2023/12/21 02:23:31;;;;;;;0.82;0.57;;;4.10;99.90;;;;;;5090689;28;20047;-72
2023/12/21 02:25:57;;;;;;;1.23;0.52;;;4.10;99.90;;;;;;5064138;28;20036;-72
2023/12/21 02:28:22;;;;;;;1.45;0.40;;;4.10;99.90;;;;;;5057709;28;20077;-72
2023/12/21 02:30:48;;;;;;;1.38;0.60;;;4.10;99.90;;;;;;5090745;28;20040;-72
2023/12/21 02:33:14;;;;;;;0.93;0.40;;;4.10;99.90;;;;;;5091997;28;20064;-72
2023/12/21 02:35:40;;;;;;;1.55;0.63;;;4.10;99.90;;;;;;5090599;28;20042;-72
2023/12/21 02:38:05;;;;;;;4.07;0.63;;;4.20;99.90;;;;;;5091577;28;20460;-73
2023/12/21 02:40:31;;;;;;;3.10;0.73;;;4.20;99.90;;;;;;5086288;28;20032;-72
2023/12/21 02:42:57;;;;;;;2.58;0.70;;;4.20;99.90;;;;;;5091035;28;20458;-73
2023/12/21 02:45:22;;;;;;;3.38;0.55;;;4.30;99.90;;;;;;5091649;28;20039;-73
2023/12/21 02:47:48;;;;;;;3.22;1.52;;;4.30;99.90;;;;;;5090938;28;20028;-72
2023/12/21 02:50:14;;;;;;;0.70;0.43;;;4.30;99.90;;;;;;5091191;28;20784;-72
2023/12/21 02:52:39;;;;;;;2.15;0.28;;;4.30;99.90;;;;;;5071848;28;20032;-72
2023/12/21 02:55:05;;;;;;;2.85;0.38;;;4.30;99.90;;;;;;5090260;28;20093;-72
2023/12/21 02:57:31;;;;;;;2.35;0.60;;;4.40;99.90;;;;;;5091354;28;20027;-72
2023/12/21 02:59:56;;;;;;;2.28;0.60;;;4.40;99.90;;;;;;5097692;28;20051;-73
2023/12/21 03:02:22;;;;;;;0.65;0.40;;;4.40;99.90;;;;;;5093732;28;20023;-72
2023/12/21 03:04:48;;;;;;;1.67;0.50;;;4.40;99.90;;;;;;5090171;28;20504;-72
2023/12/21 03:07:13;;;;;;;1.55;0.32;;;4.50;99.90;;;;;;5104040;28;20046;-71
2023/12/21 03:09:39;;;;;;;2.20;0.60;;;4.40;99.90;;;;;;5103744;28;20027;-73
2023/12/21 03:12:05;;;;;;;3.83;0.43;;;4.40;99.90;;;;;;5099626;28;20039;-73
2023/12/21 03:14:31;;;;;;;0.55;0.20;;;4.50;99.90;;;;;;5103465;28;20028;-72
2023/12/21 03:16:56;;;;;;;1.42;0.32;;;4.60;99.90;;;;;;5098025;28;20099;-73
2023/12/21 03:19:22;;;;;;;1.20;0.30;;;4.60;99.90;;;;;;5094992;28;20059;-72
2023/12/21 03:21:48;;;;;;;0.55;0.25;;;4.70;99.90;;;;;;5078010;28;20028;-73
2023/12/21 03:24:13;;;;;;;0.80;0.38;;;4.60;99.90;;;;;;5078968;28;20069;-72
2023/12/21 03:26:39;;;;;;;0.73;0.15;;;4.60;99.90;;;;;;5097374;28;20048;-73
2023/12/21 03:29:04;;;;;;;2.15;0.20;;;4.60;99.90;;;;;;5099584;28;20548;-73
2023/12/21 03:31:30;;;;;;;0.52;0.25;;;4.60;99.90;;;;;;5093383;28;20390;-72
2023/12/21 03:33:56;;;;;;;0.32;0.13;;;4.70;99.90;;;;;;5093986;28;20027;-73
2023/12/21 03:36:21;;;;;;;2.15;0.40;;;4.70;99.90;;;;;;5096814;28;20043;-73
2023/12/21 03:38:47;;;;;;;1.17;0.30;;;4.70;99.90;;;;;;5077628;28;20071;-72
2023/12/21 03:41:13;;;;;;;0.30;0.10;;;4.60;99.90;;;;;;5094780;28;20028;-72
2023/12/21 03:43:38;;;;;;;0.75;0.20;;;4.70;99.90;;;;;;5089984;28;20066;-73
2023/12/21 03:46:08;;;;;;;0.73;0.20;;;4.70;99.90;;;;;;5100483;28;20397;-72
2023/12/21 03:48:33;;;;;;;3.40;0.20;;;4.70;99.90;;;;;;5100732;28;20023;-72
2023/12/21 03:50:59;;;;;;;1.27;0.25;;;4.80;99.90;;;;;;5099008;28;20181;-72
2023/12/21 03:53:25;;;;;;;2.35;0.30;;;4.80;99.90;;;;;;5094763;28;20031;-72
2023/12/21 03:55:50;;;;;;;0.70;0.17;;;4.80;99.90;;;;;;5101859;28;20106;-72
2023/12/21 03:58:16;;;;;;;0.40;0.20;;;4.80;99.90;;;;;;5094639;28;20032;-71
2023/12/21 04:00:41;;;;;;;1.40;0.30;;;4.80;99.90;;;;;;5084681;28;20044;-73
2023/12/21 04:03:07;;;;;;;0.40;0.20;;;4.70;99.90;;;;;;5078410;28;20040;-73
2023/12/21 04:05:33;;;;;;;1.25;0.30;;;4.70;99.90;;;;;;5108483;28;20370;-72
2023/12/21 04:07:58;;;;;;;1.75;0.30;;;4.70;99.90;;;;;;5098047;28;20031;-72
2023/12/21 04:10:24;;;;;;;0.70;0.20;;;4.80;99.90;;;;;;5100913;28;20470;-72
2023/12/21 04:12:50;;;;;;;1.08;0.40;;;4.80;99.90;;;;;;5098711;28;20043;-71
2023/12/21 04:15:16;;;;;;;0.88;0.28;;;4.70;99.90;;;;;;5093180;28;20035;-73
2023/12/21 04:17:42;;;;;;;1.20;0.40;;;4.70;99.90;;;;;;5102427;28;20032;-73
2023/12/21 04:20:09;;;;;;;0.65;0.20;;;4.80;99.90;;;;;;5098196;28;20054;-71
2023/12/21 04:22:35;;;;;;;1.48;0.20;;;4.80;99.90;;;;;;5103513;28;20032;-72
2023/12/21 04:25:00;;;;;;;0.65;0.20;;;4.80;99.90;;;;;;5091149;28;20623;-71
2023/12/21 04:27:28;;;;;;;2.33;0.20;;;4.80;99.90;;;;;;5091171;28;20092;-72
2023/12/21 04:29:54;;;;;;;0.68;0.20;;;4.80;99.90;;;;;;5102460;28;20477;-71
2023/12/21 04:32:19;;;;;;;1.35;0.25;;;4.80;99.90;;;;;;5092656;28;20059;-72
2023/12/21 04:34:45;;;;;;;1.13;0.20;;;4.80;99.90;;;;;;5107172;28;20052;-73
2023/12/21 04:37:12;;;;;;;0.85;0.22;;;4.90;99.90;;;;;;5097018;28;20027;-72
2023/12/21 04:39:38;;;;;;;0.52;0.10;;;4.80;99.90;;;;;;5071219;28;20028;-72
2023/12/21 04:42:03;;;;;;;0.32;0.10;;;4.80;99.90;;;;;;5096097;28;20552;-72
2023/12/21 04:44:29;;;;;;;0.88;0.20;;;4.90;99.90;;;;;;5093212;28;20107;-72
2023/12/21 04:46:55;;;;;;;0.65;0.20;;;4.90;99.90;;;;;;5094665;28;20035;-72
2023/12/21 04:49:22;;;;;;;0.45;0.10;;;4.90;99.90;;;;;;5109010;28;20031;-72
2023/12/21 04:51:48;;;;;;;0.77;0.10;;;4.90;99.90;;;;;;5101977;28;20024;-73
2023/12/21 04:54:14;;;;;;;0.80;0.20;;;5.00;99.90;;;;;;5089748;28;20305;-72
2023/12/21 04:56:43;;;;;;;0.85;0.10;;;4.90;99.90;;;;;;5098141;28;20088;-72
2023/12/21 04:59:09;;;;;;;0.43;0.20;;;4.90;99.90;;;;;;5098782;28;20032;-72
2023/12/21 05:01:35;;;;;;;0.55;0.10;;;5.00;99.90;;;;;;5088055;28;20032;-72
2023/12/21 05:04:06;;;;;;;3.35;0.10;;;5.00;99.90;;;;;;5088074;28;20040;-72
2023/12/21 05:06:31;;;;;;;1.42;0.20;;;5.00;99.90;;;;;;5088839;28;20040;-72
2023/12/21 05:08:59;;;;;;;1.65;0.10;;;5.00;99.90;;;;;;5088267;28;20024;-71
2023/12/21 05:11:25;;;;;;;0.82;0.20;;;5.00;99.90;;;;;;5088512;28;20115;-72
2023/12/21 05:13:50;;;;;;;1.60;0.20;;;5.00;99.90;;;;;;5088101;28;20111;-72
2023/12/21 05:16:16;;;;;;;2.38;0.30;;;5.00;99.90;;;;;;5088786;28;20036;-72
2023/12/21 05:18:41;;;;;;;1.45;0.10;;;5.10;99.90;;;;;;5089090;28;20024;-72
2023/12/21 05:21:09;;;;;;;0.60;0.17;;;5.00;99.90;;;;;;5087702;28;20077;-71
2023/12/21 05:23:34;;;;;;;0.80;0.30;;;5.00;99.90;;;;;;5070262;28;20139;-71
2023/12/21 05:26:00;;;;;;;1.08;0.10;;;5.00;99.90;;;;;;5087602;28;20135;-71
2023/12/21 05:28:26;;;;;;;0.40;0.10;;;5.10;99.90;;;;;;5087405;28;20024;-71
2023/12/21 05:30:52;;;;;;;0.40;0.10;;;5.10;99.90;;;;;;5087582;28;20392;-71
2023/12/21 05:33:17;;;;;;;0.32;0.20;;;5.00;99.90;;;;;;5088816;28;20097;-71
2023/12/21 05:35:43;;;;;;;2.22;0.13;;;5.00;99.90;;;;;;5087834;28;20032;-72
2023/12/21 05:38:08;;;;;;;1.20;0.20;;;5.10;99.90;;;;;;5090355;28;20057;-72
2023/12/21 05:40:34;;;;;;;0.40;0.10;;;5.20;99.90;;;;;;5083920;28;20489;-71
2023/12/21 05:43:00;;;;;;;0.80;0.22;;;5.10;99.90;;;;;;5091106;28;20062;-72
2023/12/21 05:45:25;;;;;;;1.58;0.30;;;5.10;99.90;;;;;;5092610;28;20081;-71
2023/12/21 05:47:51;;;;;;;0.30;0.20;;;5.20;99.90;;;;;;5092165;28;20028;-71
2023/12/21 05:50:17;;;;;;;0.65;0.20;;;5.20;99.90;;;;;;5092443;28;20028;-71
2023/12/21 05:52:43;;;;;;;0.93;0.10;;;5.20;99.90;;;;;;5092291;28;20035;-71
2023/12/21 05:55:14;;;;;;;0.55;0.13;;;5.10;99.90;;;;;;5091635;28;20074;-71
2023/12/21 05:57:40;;;;;;;0.63;0.20;;;5.10;99.90;;;;;;5081345;28;20020;-71
2023/12/21 06:00:06;;;;;;;0.85;0.10;;;5.20;99.90;;;;;;5090927;28;20071;-72
2023/12/21 06:02:32;;;;;;;0.75;0.20;;;5.20;99.90;;;;;;5091220;28;20020;-71
2023/12/21 06:04:58;;;;;;;0.57;0.20;;;5.20;99.90;;;;;;5073187;28;20090;-71
2023/12/21 06:07:23;;;;;;;0.00;0.00;;;5.20;99.90;;;;;;5092488;28;20022;-71
2023/12/21 06:09:50;;;;;;;0.30;0.10;;;5.30;99.90;;;;;;5091568;28;20046;-72
2023/12/21 06:12:15;;;;;;;0.50;0.20;;;5.30;99.90;;;;;;5091989;28;20438;-72
2023/12/21 06:14:42;;;;;;;0.68;0.10;;;5.30;99.90;;;;;;5092008;28;20032;-72
2023/12/21 06:17:09;;;;;;;1.23;0.15;;;5.30;99.90;;;;;;5091343;28;20085;-72
2023/12/21 06:19:35;;;;;;;0.30;0.10;;;5.30;99.90;;;;;;5091726;28;20036;-71
2023/12/21 06:22:03;;;;;;;0.40;0.10;;;5.30;99.90;;;;;;5091406;28;20073;-72
2023/12/21 06:24:29;;;;;;;0.10;0.00;;;5.30;99.90;;;;;;5091393;28;20031;-71
2023/12/21 06:26:54;;;;;;;0.57;0.10;;;5.30;99.90;;;;;;5072935;28;20410;-72
2023/12/21 06:29:20;;;;;;;0.20;0.20;;;5.40;99.90;;;;;;5066790;28;20107;-72
2023/12/21 06:31:46;;;;;;;0.60;0.20;;;5.40;99.90;;;;;;5078633;28;20040;-72
2023/12/21 06:34:11;;;;;;;0.75;0.10;;;5.40;99.90;;;;;;5083395;28;20474;-72
2023/12/21 06:36:37;;;;;;;0.30;0.10;;;5.40;99.90;;;;;;5065375;28;20035;-72
2023/12/21 06:39:03;;;;;;;0.88;0.13;;;5.50;99.90;;;;;;5054326;28;20037;-71
2023/12/21 06:41:28;;;;;;;0.35;0.17;;;5.50;99.90;;;;;;5072326;28;20028;-72
2023/12/21 06:43:57;;;;;;;0.15;0.10;;;5.50;99.90;;;;;;5070623;28;20033;-71
2023/12/21 06:46:34;;;;;;;0.20;0.10;;;5.60;99.90;;;;;;5069276;28;20119;-71
2023/12/21 06:48:59;;;;;;;0.20;0.10;;;5.70;99.90;;;;;;5063861;28;20035;-71
2023/12/21 06:51:25;;;;;;;0.57;0.10;;;5.70;99.90;;;;;;5064625;28;20037;-73
2023/12/21 06:53:50;;;;;;;0.20;0.08;;;5.70;99.90;;;;;;5050413;28;20025;-73
2023/12/21 06:56:17;;;;;;;0.28;0.10;;;5.80;99.90;;;;;;5033428;28;20072;-73
2023/12/21 06:58:43;;;;;;;0.40;0.10;;;5.80;99.90;;;;;;5058816;28;20024;-72
2023/12/21 07:01:10;;;;;;;0.40;0.05;;;5.90;99.90;;;;;;5090729;28;20047;-71
2023/12/21 07:03:35;;;;;;;0.25;0.10;;;5.90;99.90;;;;;;5089898;28;20115;-71
2023/12/21 07:06:03;;;;;;;0.22;0.13;;;5.90;99.90;;;;;;5072068;28;20119;-72
2023/12/21 07:08:31;;;;;;;0.40;0.20;;;6.10;99.90;;;;;;5090052;28;20024;-72
2023/12/21 07:11:00;;;;;;;0.43;0.10;;;6.10;99.90;;;;;;5109769;28;20035;-71
2023/12/21 07:13:28;;;;;;;0.32;0.00;;;6.10;99.90;;;;;;5091478;28;20032;-73
2023/12/21 07:15:54;;;;;;;0.30;0.08;;;6.10;99.90;;;;;;5093577;28;20321;-72
2023/12/21 07:18:38;;;;;;;0.60;0.10;;;6.20;99.90;;;;;;5083893;28;20111;-72
2023/12/21 07:21:06;;;;;;;0.30;0.10;;;6.10;99.90;;;;;;5105833;28;20099;-72
2023/12/21 07:23:32;;;;;;;0.30;0.10;;;6.10;99.90;;;;;;5067658;28;20174;-72
2023/12/21 07:25:58;;;;;;;0.52;0.10;;;6.10;99.90;;;;;;5069655;28;20123;-71
2023/12/21 07:28:25;;;;;;;0.47;0.10;;;6.20;99.90;;;;;;5056366;28;20493;-72
2023/12/21 07:30:51;;;;;;;1.05;0.10;;;6.10;99.90;;;;;;5096828;28;20552;-76
2023/12/21 07:33:19;;;;;;;0.38;0.10;;;6.10;99.90;;;;;;5102155;28;20028;-71
2023/12/21 07:35:45;;;;;;;0.32;0.10;;;6.20;99.90;;;;;;5092188;28;20390;-71
2023/12/21 07:38:10;;;;;;;0.85;0.10;;;6.20;99.90;;;;;;5089969;28;20025;-72
2023/12/21 07:40:36;;;;;;;0.43;0.10;;;6.20;99.90;;;;;;5085194;28;20038;-72
2023/12/21 07:43:02;;;;;;;0.88;0.20;;;6.20;99.90;;;;;;5091086;28;20027;-72
2023/12/21 07:45:27;;;;;;;0.20;0.10;;;6.20;99.90;;;;;;5090408;28;20028;-73
2023/12/21 07:47:54;;;;;;;0.93;0.10;;;6.20;99.90;;;;;;5087004;28;20033;-73
2023/12/21 07:50:19;;;;;;;1.02;0.22;;;6.20;99.90;;;;;;5087541;28;20504;-72
2023/12/21 07:52:45;;;;;;;0.52;0.10;;;6.20;99.90;;;;;;5096409;28;20032;-73
2023/12/21 07:55:11;;;;;;;0.35;0.10;;;6.20;99.90;;;;;;5069388;28;20051;-71
2023/12/21 07:57:36;;;;;;;1.75;0.17;;;6.10;99.90;;;;;;5081754;28;20028;-72
2023/12/21 08:00:02;;;;;;;0.88;0.13;;;6.20;99.90;;;;;;5088941;28;20078;-72
2023/12/21 08:02:28;;;;;;;0.93;0.08;;;6.20;99.90;;;;;;5105863;28;20376;-72
2023/12/21 08:04:53;;;;;;;1.73;0.20;;;6.20;99.90;;;;;;5069336;28;20028;-73
2023/12/21 08:07:19;;;;;;;0.40;0.10;;;6.20;99.90;;;;;;5071254;28;20056;-73
2023/12/21 08:09:45;;;;;;;0.63;0.13;;;6.20;99.90;;;;;;5100558;28;20040;-75
2023/12/21 08:12:13;;;;;;;0.50;0.20;;;6.40;99.90;;;;;;5091398;28;20031;-73
2023/12/21 08:14:39;;;;;;;0.10;0.10;;;6.40;99.90;;;;;;5070949;28;20402;-74
2023/12/21 08:17:09;;;;;;;0.43;0.10;;;6.50;99.90;;;;;;5067207;28;20037;-73
2023/12/21 08:19:38;;;;;;;;;;;6.50;99.90;;;;;;5085760;28;20518;-72
2023/12/21 08:22:04;;;;;;;0.90;0.10;;;6.50;99.90;;;;;;5071073;28;19958;-74
2023/12/21 08:24:30;;;;;;;0.30;0.10;;;6.60;99.90;;;;;;5072302;28;20097;-73
2023/12/21 08:26:56;;;;;;;0.20;0.10;;;6.60;99.90;;;;;;5087053;28;20027;-74
2023/12/21 08:29:21;;;;;;;1.05;0.22;;;6.50;99.90;;;;;;5070702;28;20397;-74
2023/12/21 08:31:47;;;;;;;1.50;0.20;;;6.60;99.90;;;;;;5094200;28;20043;-73
2023/12/21 08:34:13;;;;;;;0.60;0.20;;;6.60;99.90;;;;;;5074257;28;20028;-73
2023/12/21 08:36:39;;;;;;;0.40;0.20;;;6.60;99.90;;;;;;5069532;28;20366;-73
2023/12/21 08:39:04;;;;;;;0.60;0.10;;;6.60;99.90;;;;;;5081568;28;20028;-73
2023/12/21 08:41:30;;;;;;;1.10;0.10;;;6.60;99.90;;;;;;5099651;28;20032;-74
2023/12/21 08:43:56;;;;;;;1.75;0.10;;;6.60;99.90;;;;;;5095900;28;20060;-77
2023/12/21 08:46:22;;;;;;;0.82;0.28;;;6.50;99.90;;;;;;5052807;28;20107;-72
2023/12/21 08:48:48;;;;;;;0.40;0.20;;;6.60;99.90;;;;;;5061102;28;20032;-71
2023/12/21 08:51:14;;;;;;;0.45;0.20;;;6.50;99.90;;;;;;5092257;28;20026;-70
2023/12/21 08:53:39;;;;;;;1.50;0.32;;;6.50;99.90;;;;;;5067051;28;20483;-73
2023/12/21 08:56:06;;;;;;;2.85;0.30;;;6.60;99.90;;;;;;5082332;28;20042;-71
2023/12/21 08:58:31;;;;;;;0.90;0.10;;;6.60;99.90;;;;;;5089583;28;20036;-70
2023/12/21 09:00:58;;;;;;;0.10;0.10;;;6.50;99.90;;;;;;5068086;28;20422;-74
2023/12/21 09:03:24;;;;;;;0.22;0.10;;;6.50;99.90;;;;;;5069567;28;20024;-69
2023/12/21 09:05:50;;;;;;;0.30;0.10;;;6.50;99.90;;;;;;5088812;28;20121;-70
2023/12/21 09:08:16;;;;;;;0.45;0.13;;;6.50;99.90;;;;;;5080962;28;20033;-71
2023/12/21 09:10:41;;;;;;;0.85;0.20;;;6.40;99.90;;;;;;5074847;28;20133;-70
2023/12/21 09:13:07;;;;;;;0.75;0.13;;;6.50;99.90;;;;;;5086825;28;20114;-69
2023/12/21 09:15:33;;;;;;;0.40;0.15;;;6.50;99.90;;;;;;5088863;28;20031;-70
2023/12/21 09:17:59;;;;;;;0.30;0.10;;;6.50;99.90;;;;;;5080215;28;20032;-71
2023/12/21 09:20:25;;;;;;;0.20;0.10;;;6.60;99.90;;;;;;5073470;28;20040;-74
2023/12/21 09:22:50;;;;;;;0.35;0.17;;;6.60;99.90;;;;;;5053454;28;20036;-72
2023/12/21 09:25:18;;;;;;;0.65;0.50;;;6.60;99.90;;;;;;5088137;28;20028;-71
2023/12/21 09:27:44;;;;;;;0.35;0.10;;;6.60;99.90;;;;;;5069358;28;20869;-73
2023/12/21 09:30:10;;;;;;;0.77;0.20;;;6.60;99.90;;;;;;5087797;28;20036;-74
2023/12/21 09:32:38;;;;;;;0.22;0.10;;;6.60;99.90;;;;;;5078126;28;20028;-75
2023/12/21 09:35:04;;;;;;;0.50;0.30;;;6.60;99.90;;;;;;5088568;28;20474;-75
2023/12/21 09:37:30;;;;;;;0.82;0.13;;;6.70;99.90;;;;;;5088618;28;20435;-79
2023/12/21 09:39:57;;;;;;;0.60;0.10;;;6.70;99.90;;;;;;5086716;28;20107;-83
2023/12/21 09:42:26;;;;;;;0.63;0.20;;;6.70;99.90;;;;;;5088838;28;20455;-74
2023/12/21 09:44:53;;;;;;;0.50;0.10;;;6.70;99.90;;;;;;5089018;28;20036;-76
2023/12/21 09:47:20;;;;;;;0.40;0.20;;;6.70;99.90;;;;;;5062017;28;20086;-76
2023/12/21 09:49:47;;;;;;;0.82;0.20;;;6.70;99.90;;;;;;5086444;28;20039;-78
2023/12/21 09:52:14;;;;;;;2.75;0.40;;;6.70;99.90;;;;;;5088317;28;20538;-74
2023/12/21 09:54:41;;;;;;;0.60;0.20;;;6.80;99.90;;;;;;5052304;28;20052;-74
2023/12/21 09:57:09;;;;;;;0.20;0.10;;;6.80;99.90;;;;;;5074659;28;20039;-76
2023/12/21 09:59:37;;;;;;;0.65;0.20;;;6.90;99.90;;;;;;5084518;28;20107;-80
2023/12/21 10:02:11;;;;;;;0.52;0.20;;;6.90;99.90;;;;;;5087505;28;20043;-74
2023/12/21 10:04:41;;;;;;;0.75;0.20;;;6.90;99.90;;;;;;5061204;28;20032;-76
2023/12/21 10:07:08;;;;;;;0.25;0.08;;;6.90;99.90;;;;;;5087215;28;20066;-75
2023/12/21 10:09:34;;;;;;;0.10;0.08;;;6.90;99.90;;;;;;5081566;28;20098;-74
2023/12/21 10:12:00;;;;;;;0.90;0.20;;;7.00;99.90;;;;;;5088450;28;20107;-82
2023/12/21 10:14:27;;;;;;;0.20;0.13;;;7.00;99.90;;;;;;5069955;28;20367;-75
2023/12/21 10:16:53;;;;;;;2.38;0.20;;;7.00;99.90;;;;;;5070257;28;20028;-73
2023/12/21 10:19:18;;;;;;;1.90;0.13;;;7.00;99.90;;;;;;5081768;28;20158;-75
2023/12/21 10:21:46;;;;;;;2.25;0.20;;;7.00;99.90;;;;;;5087595;28;20070;-74
2023/12/21 10:24:12;;;;;;;0.75;0.20;;;7.00;99.90;;;;;;5080926;28;20107;-78
2023/12/21 10:26:45;;;;;;;0.30;0.20;;;7.00;99.90;;;;;;5091551;28;20076;-76
2023/12/21 10:29:17;;;;;;;0.65;0.10;;;7.00;99.90;;;;;;5089838;28;20039;-77
2023/12/21 10:31:47;;;;;;;0.88;0.20;;;7.10;99.90;;;;;;5090829;28;20036;-76
2023/12/21 10:34:17;;;;;;;0.75;0.20;;;7.10;99.90;;;;;;5068723;28;20070;-72
2023/12/21 10:36:44;;;;;;;0.40;0.10;;;7.10;99.90;;;;;;5084513;28;20035;-71
2023/12/21 10:39:14;;;;;;;1.15;0.20;;;7.10;99.90;;;;;;5086005;28;20075;-74
2023/12/21 10:41:44;;;;;;;0.43;0.10;;;7.10;99.90;;;;;;5061054;28;20726;-75
2023/12/21 10:44:15;;;;;;;1.13;0.20;;;7.20;99.90;;;;;;5062069;28;20056;-75
2023/12/21 10:46:43;;;;;;;;;;;7.30;99.90;;;;;;5087172;28;20036;-74
2023/12/21 10:49:12;;;;;;;0.50;0.10;;;7.30;99.90;;;;;;5082554;28;20388;-73
2023/12/21 10:51:43;;;;;;;3.60;0.10;;;7.30;99.90;;;;;;5075465;28;20466;-73
2023/12/21 10:54:11;;;;;;;4.70;0.20;;;7.40;99.90;;;;;;5077879;28;20043;-72
2023/12/21 10:56:39;;;;;;;0.47;0.20;;;7.40;99.90;;;;;;5088012;28;20123;-73
2023/12/21 10:59:07;;;;;;;0.15;0.10;;;7.40;99.90;;;;;;5085997;28;20071;-76
2023/12/21 11:01:34;;;;;;;0.50;0.10;;;7.40;99.90;;;;;;5087060;28;20116;-73
2023/12/21 11:04:00;;;;;;;0.25;0.10;;;7.40;99.90;;;;;;5092318;28;20032;-76
2023/12/21 11:06:27;;;;;;;1.70;0.20;;;7.40;99.90;;;;;;5056824;28;20098;-74
2023/12/21 11:08:54;;;;;;;0.47;0.10;;;7.40;99.90;;;;;;5082261;28;20379;-74
2023/12/21 11:11:23;;;;;;;1.48;0.47;;;7.50;99.90;;;;;;5089648;28;20051;-80
2023/12/21 11:13:54;;;;;;;0.38;0.10;;;7.50;99.90;;;;;;5081621;28;20016;-76
2023/12/21 11:16:24;;;;;;;0.35;0.10;;;7.50;99.90;;;;;;5072423;28;20030;-78
2023/12/21 11:18:53;;;;;;;0.22;0.00;;;7.50;99.90;;;;;;5090291;28;20509;-80
2023/12/21 11:21:21;;;;;;;0.15;0.08;;;7.60;99.90;;;;;;5071505;28;20804;-76
2023/12/21 11:23:47;;;;;;;0.20;0.10;;;7.60;99.90;;;;;;5081399;28;20073;-77
2023/12/21 11:26:25;;;;;;;0.22;0.10;;;7.50;99.90;;;;;;5089865;28;20036;-71
2023/12/21 11:29:05;;;;;;;0.15;0.10;;;7.60;99.90;;;;;;5071302;28;20123;-71
2023/12/21 11:31:41;;;;;;;0.38;0.10;;;7.60;99.90;;;;;;5090384;28;20540;-70
2023/12/21 11:34:21;;;;;;;1.65;0.15;;;7.70;99.90;;;;;;5076000;28;20028;-71
2023/12/21 11:36:50;;;;;;;0.40;0.10;;;7.70;99.90;;;;;;5089208;28;20488;-73
2023/12/21 11:39:18;;;;;;;0.30;0.10;;;7.70;99.90;;;;;;5087317;28;20028;-75
2023/12/21 11:41:58;;;;;;;0.20;0.03;;;7.70;99.90;;;;;;5070668;28;20359;-70
2023/12/21 11:44:33;;;;;;;0.20;0.10;;;7.70;99.90;;;;;;5089150;28;20035;-70
2023/12/21 11:46:59;;;;;;;1.75;0.10;;;7.70;99.90;;;;;;5084505;28;20047;-70
2023/12/21 11:49:26;;;;;;;0.73;0.10;;;7.80;99.90;;;;;;5080345;28;20115;-73
2023/12/21 11:51:51;;;;;;;0.80;0.20;;;7.80;99.90;;;;;;5070507;28;20060;-72
2023/12/21 11:54:22;;;;;;;0.20;0.00;;;7.80;99.90;;;;;;5069408;28;20087;-68
2023/12/21 11:56:53;;;;;;;1.13;0.05;;;7.80;99.90;;;;;;5062831;28;20481;-68
2023/12/21 11:59:28;;;;;;;;;;;7.80;99.90;;;;;;5071575;28;20048;-67
2023/12/21 12:01:53;;;;;;;0.43;0.15;;;7.70;99.90;;;;;;5090308;28;20407;-68
2023/12/21 12:04:19;;;;;;;0.47;0.10;;;7.60;99.90;;;;;;5078481;28;20024;-70
2023/12/21 12:06:47;;;;;;;0.30;0.10;;;7.60;99.90;;;;;;5061861;28;20718;-72
2023/12/21 12:09:13;;;;;;;1.85;0.35;;;7.50;99.90;;;;;;5070078;28;20028;-69
2023/12/21 12:11:41;;;;;;;0.50;0.10;;;7.40;99.90;;;;;;5090306;28;20026;-71
2023/12/21 12:14:09;;;;;;;0.55;0.10;;;7.40;99.90;;;;;;5089503;28;20024;-71
2023/12/21 12:16:34;;;;;;;0.60;0.10;;;7.30;99.90;;;;;;5090229;28;20069;-73
2023/12/21 12:19:00;;;;;;;0.40;0.10;;;7.30;99.90;;;;;;5071197;28;20056;-70
2023/12/21 12:21:26;;;;;;;0.68;0.17;;;7.30;99.90;;;;;;5088543;28;20101;-72
2023/12/21 12:23:53;;;;;;;0.70;0.03;;;7.30;99.90;;;;;;5090165;28;20063;-70
2023/12/21 12:26:18;;;;;;;0.28;0.10;;;7.20;99.90;;;;;;5088920;28;20028;-70
2023/12/21 12:28:47;;;;;;;0.45;0.10;;;7.20;99.90;;;;;;5071426;28;20130;-70
2023/12/21 12:31:13;;;;;;;0.00;0.00;;;7.10;99.90;;;;;;5085566;28;20040;-72
2023/12/21 12:33:39;;;;;;;0.50;0.10;;;7.10;99.90;;;;;;5078521;28;20032;-72
2023/12/21 12:36:06;;;;;;;0.45;0.20;;;7.10;99.90;;;;;;5071195;28;20064;-74
2023/12/21 12:38:32;;;;;;;0.60;0.20;;;7.00;99.90;;;;;;5084263;28;20118;-72
2023/12/21 12:40:58;;;;;;;0.35;0.15;;;7.00;99.90;;;;;;5086367;28;20888;-70
2023/12/21 12:43:27;;;;;;;1.90;0.30;;;7.00;99.90;;;;;;5088006;28;20111;-69
2023/12/21 12:45:53;;;;;;;4.80;0.57;;;7.00;99.90;;;;;;5081642;28;20029;-71
2023/12/21 12:48:19;;;;;;;0.50;0.10;;;7.10;99.90;;;;;;5064242;28;20031;-69
2023/12/21 12:50:46;;;;;;;0.22;0.10;;;7.00;99.90;;;;;;5060754;28;20122;-76
2023/12/21 12:53:12;;;;;;;0.10;0.10;;;7.00;99.90;;;;;;5070081;28;20035;-69
2023/12/21 12:55:38;;;;;;;0.70;0.30;;;7.00;99.90;;;;;;5089017;28;20390;-72